Flight Track Log - Related Links

Times and Time Zones

All times are in EST time to prevent confusion due to time zone crossing. See the EJA922 flight status page for this flight to view local times or setup timezone preferences in your user account.

Time Position Orientation Groundspeed Altitude Reporting Facility
EST Latitude Longitude Course Direction KTS MPH feet Rate Location/Type
Sat 02:26:49 PM 33.8500 -116.5167 320° Northwest 197 227 2,000  Level Southern California TRACON
Sat 02:27:50 PM 33.9000 -116.5667 320° Northwest 225 259 7,100 4,213 Climbing Southern California TRACON
Sat 02:29:10 PM 33.9378 -116.4939 58° Northeast 280 322 11,900 2,704 Climbing Los Angeles Center
Sat 02:30:12 PM 33.9181 -116.3822 102° East 344 396 13,500 1,597 Climbing Los Angeles Center
Sat 02:31:14 PM 33.8925 -116.2519 103° East 388 447 15,200 1,887 Climbing Los Angeles Center
Sat 02:32:16 PM 33.8664 -116.1158 103° East 410 472 17,400 1,790 Climbing Los Angeles Center
Sat 02:33:18 PM 33.8394 -115.9764 103° East 422 486 18,900 774 Climbing Los Angeles Center
Sat 02:34:20 PM 33.8114 -115.8344 103° East 432 497 19,000 48 Climbing Los Angeles Center
Sat 02:35:22 PM 33.7833 -115.6878 103° East 442 509 19,000  Level Los Angeles Center
Sat 02:36:24 PM 33.7472 -115.5106 104° East 452 520 19,000  Level Los Angeles Center
Sat 02:37:26 PM 33.7203 -115.3711 103° East 438 504 19,000  Level Los Angeles Center
Sat 02:38:28 PM 33.6917 -115.2292 104° East 435 501 19,000  Level Los Angeles Center
Sat 02:39:31 PM 33.6736 -115.0858 99° East 433 498 19,000  Level Los Angeles Center
Sat 02:40:33 PM 33.6703 -114.9469 92° East 420 483 19,000  Level Los Angeles Center
Sat 02:41:35 PM 33.6622 -114.8092 94° East 414 476 19,000  Level Los Angeles Center
Sat 02:42:37 PM 33.6547 -114.6456 93° East 409 471 19,000  Level Los Angeles Center
Sat 02:43:39 PM 33.6475 -114.5100 94° East 406 467 19,000  Level Los Angeles Center
Sat 02:44:41 PM 33.6414 -114.3742 93° East 407 468 19,000  Level Los Angeles Center
Sat 02:45:37 PM 33.6333 -114.2642 95° East 405 466 19,000  Level Albuquerque Center
Sat 02:46:38 PM 33.6292 -114.1228 92° East 411 473 19,000  Level Albuquerque Center
Sat 02:47:40 PM 33.6172 -113.9597 95° East 412 474 19,000  Level Albuquerque Center
Sat 02:48:42 PM 33.5953 -113.8297 101° East 403 464 19,000  Level Albuquerque Center
Sat 02:49:44 PM 33.5550 -113.7014 111° Southeast 409 471 19,000  Level Albuquerque Center
Sat 02:50:46 PM 33.5156 -113.5733 110° East 411 473 19,000 -726 Level Albuquerque Center
Sat 02:51:48 PM 33.4758 -113.4431 110° East 414 476 17,500 -1,659 Descending Albuquerque Center
Sat 02:52:49 PM 33.4364 -113.3167 110° East 408 470 15,600 -1,220 Descending Albuquerque Center
Sat 02:53:51 PM 33.3972 -113.1919 111° Southeast 404 465 15,000 -290 Descending Albuquerque Center
Sat 02:54:53 PM 33.3531 -113.0500 110° East 385 443 15,000 -339 Level Albuquerque Center
Sat 02:55:55 PM 33.3186 -112.9411 111° Southeast 363 418 14,300 -1,210 Descending Albuquerque Center
Sat 02:56:57 PM 33.2883 -112.8328 108° East 349 402 12,500 -1,645 Descending Albuquerque Center
Sat 02:57:59 PM 33.3106 -112.7381 74° East 306 352 10,900 -1,366 Descending Albuquerque Center
Sat 02:59:00 PM 33.3422 -112.6556 65° Northeast 281 323 9,700 -1,073 Descending Albuquerque Center
Sat 03:00:02 PM 33.3783 -112.5639 65° Northeast 270 311 8,700 -919 Descending Albuquerque Center
Sat 03:01:04 PM 33.4089 -112.4806 66° East 273 314 7,800 -968 Descending Albuquerque Center
Sat 03:02:06 PM 33.4308 -112.4022 71° East 253 291 6,700 -1,016 Descending Albuquerque Center
Sat 03:03:08 PM 33.4289 -112.3203 92° East 246 283 5,700 -976 Descending Albuquerque Center
Sat 03:04:09 PM 33.4292 -112.2492 90° East 221 254 4,700 -927 Descending Albuquerque Center
Sat 03:05:11 PM 33.4289 -112.1875 90° East 192 221 3,800 -871 Descending Albuquerque Center
Sat 03:06:13 PM 33.4286 -112.1358 90° East 160 184 2,900 -865 Descending Albuquerque Center
Sat 03:07:02 PM 33.4333 -112.1000 81° East 134 154 2,200 -744 Descending Phoenix TRACON
Sat 03:08:14 PM 33.4333 -112.0333 90° East 131 151 1,400 -667 Descending Phoenix TRACON

Login

Don't have an account? Register now (free) for customized features, flight alerts, and more!